Alamosa, CO

9:50 PM MDT on August 21, 2017 (GMT -0600)
Park Ave. neighborhood | | Change Station

Elev 7552 ft 37.49 °N, 105.89 °W | Updated 5 seconds ago

Scattered Clouds
Scattered Clouds
59.0 °F
Feels Like 59.0 °F
N
4.9
Wind Variable Wind from SW
Gusts 13.0 mph

Today
High -- | Low -- °F
--% Chance of Precip.
Yesterday
High -- | Low -- °F
Precip. -- in
Pressure 30.16 in
Visibility 10.0 miles
Clouds Few 8000 ft
Scattered Clouds 11000 ft
Dew Point 46 °F
Humidity 61%
Rainfall 0.00 in
Snow Depth Not available.
6:24 AM 7:47 PM
New Moon, 0% visible
METAR KALS 220252Z AUTO 33011KT 10SM FEW080 SCT110 15/08 A3040 RMK AO2 SLP212 T01500083 53021
Pressure 30.16 in
Visibility 10.0 miles
Clouds Few 8000 ft
Scattered Clouds 11000 ft
Dew Point 46 °F
Humidity 61%
Rainfall 0.00 in
Snow Depth Not available.
6:24 AM 7:47 PM
New Moon, 0% visible
METAR KALS 220252Z AUTO 33011KT 10SM FEW080 SCT110 15/08 A3040 RMK AO2 SLP212 T01500083 53021

Get Severe Weather Alerts

Thanks for signing up!

Be on the lookout for a verification email in your inbox.

You'll start receiving the daily forecast at 6 AM.

×

10-Day Weather Forecast

Almanac

Astronomy

Aug. 21, 2017 Rise Set
Actual Time
Civil Twilight
Nautical Twilight
Astronomical Twilight
Moon
Length of Visible Light
Length of Day
Tomorrow will be .
, % of the Moon is Illuminated

Today's Extremes

State Highs State Lows

Community

WunderPhotos

Category 6

Welcome to Category 6. This is the collective home for Weather Underground's featured writeups by Dr. Jeff Masters (right), Bob Henson (left), Chris Burt, and other regular contributors.

Nearby

Air Quality

  Air Quality AQ Index Pollutant
Not available.

Snow Depth

Station Depth Elevation

Earthquake Activity

City Distance Mag. Time & Date
Minimum magnitude displayed is 2.5.

Coastal Water Temperatures

Place Temperature

Stations

Nearby Weather Stations

Station Location Temp. Windchill Dew Point Humidity Wind Precip. Elev Updated Type
                   

Watches & Warnings

There are currently no watches in effect.